Terminal Aerodrome Forecast
Issued by NWS St Louis, MO

Home | Current Version | Previous Version | Text Only | Print | Product List | Glossary On
Versions: 1 2 3 4 5 6 7 8 9 10 11 12 13 14 15 16 17 18 19 20 21 22 23 24 25 26 27
524
FTUS43 KLSX 220313 AAA
TAFSTL
TAF AMD
KSTL 220313Z 2203/2306 16014G21KT P6SM BKN050
     FM220700 16013G20KT P6SM VCTS BKN050CB
     FM220900 16013G20KT 6SM SHRA VCTS BKN040CB
      TEMPO 2210/2212 4SM SHRA OVC030
     FM221200 18013KT 6SM -SHRA BR OVC015
     FM221700 29012KT P6SM -SHRA OVC015
     FM222100 31012KT P6SM OVC035
     FM230300 32006KT P6SM BKN035=

USA.gov is the U.S. government's official web portal to all federal, state and local government web resources and services.